sensor_id;sensor_type;location;lat;lon;timestamp;P1;durP1;ratioP1;P2;durP2;ratioP2
72882;SDS011;61017;37.812;-122.286;2022-09-29T00:00:17;3.05;;;1.60;;
72882;SDS011;61017;37.812;-122.286;2022-09-29T00:02:07;3.75;;;1.67;;
72882;SDS011;61017;37.812;-122.286;2022-09-29T00:03:57;6.78;;;1.77;;
72882;SDS011;61017;37.812;-122.286;2022-09-29T00:05:52;3.03;;;1.60;;
72882;SDS011;61017;37.812;-122.286;2022-09-29T00:07:43;4.10;;;1.58;;
72882;SDS011;61017;37.812;-122.286;2022-09-29T00:09:33;3.17;;;1.75;;
72882;SDS011;61017;37.812;-122.286;2022-09-29T00:11:23;3.10;;;1.60;;
72882;SDS011;61017;37.812;-122.286;2022-09-29T00:13:13;5.20;;;1.70;;
72882;SDS011;61017;37.812;-122.286;2022-09-29T00:15:04;4.80;;;1.60;;
72882;SDS011;61017;37.812;-122.286;2022-09-29T00:16:55;2.97;;;1.70;;
72882;SDS011;61017;37.812;-122.286;2022-09-29T00:18:45;2.47;;;1.60;;
72882;SDS011;61017;37.812;-122.286;2022-09-29T00:20:35;4.22;;;1.48;;
72882;SDS011;61017;37.812;-122.286;2022-09-29T00:22:26;2.67;;;1.65;;
72882;SDS011;61017;37.812;-122.286;2022-09-29T00:24:16;3.50;;;1.83;;
72882;SDS011;61017;37.812;-122.286;2022-09-29T00:26:08;6.30;;;1.95;;
72882;SDS011;61017;37.812;-122.286;2022-09-29T00:28:00;3.70;;;1.75;;
72882;SDS011;61017;37.812;-122.286;2022-09-29T00:29:50;3.40;;;1.65;;
72882;SDS011;61017;37.812;-122.286;2022-09-29T00:31:41;2.65;;;1.60;;
72882;SDS011;61017;37.812;-122.286;2022-09-29T00:33:32;3.65;;;1.50;;
72882;SDS011;61017;37.812;-122.286;2022-09-29T00:35:23;4.63;;;1.65;;
72882;SDS011;61017;37.812;-122.286;2022-09-29T00:37:14;3.42;;;1.83;;
72882;SDS011;61017;37.812;-122.286;2022-09-29T00:39:04;5.10;;;1.90;;
72882;SDS011;61017;37.812;-122.286;2022-09-29T00:40:55;3.65;;;1.73;;
72882;SDS011;61017;37.812;-122.286;2022-09-29T00:42:45;3.38;;;1.85;;
72882;SDS011;61017;37.812;-122.286;2022-09-29T00:46:44;3.38;;;1.67;;
72882;SDS011;61017;37.812;-122.286;2022-09-29T00:48:44;3.20;;;1.70;;
72882;SDS011;61017;37.812;-122.286;2022-09-29T00:50:42;3.58;;;1.60;;
72882;SDS011;61017;37.812;-122.286;2022-09-29T00:52:39;2.80;;;1.70;;
72882;SDS011;61017;37.812;-122.286;2022-09-29T00:54:36;2.28;;;1.60;;
72882;SDS011;61017;37.812;-122.286;2022-09-29T00:56:33;3.13;;;1.60;;
72882;SDS011;61017;37.812;-122.286;2022-09-29T00:58:33;2.55;;;1.52;;
72882;SDS011;61017;37.812;-122.286;2022-09-29T01:00:38;5.50;;;1.60;;
72882;SDS011;61017;37.812;-122.286;2022-09-29T01:02:28;3.63;;;1.70;;
72882;SDS011;61017;37.812;-122.286;2022-09-29T01:04:21;3.03;;;1.75;;
72882;SDS011;61017;37.812;-122.286;2022-09-29T01:06:23;3.05;;;1.60;;
72882;SDS011;61017;37.812;-122.286;2022-09-29T01:08:20;3.40;;;1.60;;
72882;SDS011;61017;37.812;-122.286;2022-09-29T01:10:17;5.07;;;1.73;;
72882;SDS011;61017;37.812;-122.286;2022-09-29T01:12:08;2.75;;;1.58;;
72882;SDS011;61017;37.812;-122.286;2022-09-29T01:13:59;4.13;;;1.98;;
72882;SDS011;61017;37.812;-122.286;2022-09-29T01:15:52;2.75;;;1.73;;
72882;SDS011;61017;37.812;-122.286;2022-09-29T01:17:45;4.55;;;1.70;;
72882;SDS011;61017;37.812;-122.286;2022-09-29T01:19:43;4.68;;;1.45;;
72882;SDS011;61017;37.812;-122.286;2022-09-29T01:21:39;3.35;;;1.80;;
72882;SDS011;61017;37.812;-122.286;2022-09-29T01:24:02;3.72;;;1.60;;
72882;SDS011;61017;37.812;-122.286;2022-09-29T01:30:19;3.97;;;1.70;;
72882;SDS011;61017;37.812;-122.286;2022-09-29T01:34:37;2.97;;;1.60;;
72882;SDS011;61017;37.812;-122.286;2022-09-29T01:36:54;3.58;;;1.67;;
72882;SDS011;61017;37.812;-122.286;2022-09-29T01:41:01;3.72;;;1.75;;
72882;SDS011;61017;37.812;-122.286;2022-09-29T01:44:49;4.18;;;1.83;;
72882;SDS011;61017;37.812;-122.286;2022-09-29T01:46:49;4.32;;;1.80;;
72882;SDS011;61017;37.812;-122.286;2022-09-29T01:48:58;4.20;;;1.75;;
72882;SDS011;61017;37.812;-122.286;2022-09-29T01:50:52;5.30;;;1.92;;
72882;SDS011;61017;37.812;-122.286;2022-09-29T01:52:48;6.80;;;1.67;;
72882;SDS011;61017;37.812;-122.286;2022-09-29T01:54:44;5.93;;;1.80;;
72882;SDS011;61017;37.812;-122.286;2022-09-29T01:56:37;4.63;;;1.60;;
72882;SDS011;61017;37.812;-122.286;2022-09-29T01:58:40;8.23;;;1.83;;
72882;SDS011;61017;37.812;-122.286;2022-09-29T02:00:50;9.80;;;2.00;;
72882;SDS011;61017;37.812;-122.286;2022-09-29T02:05:00;8.82;;;1.90;;
72882;SDS011;61017;37.812;-122.286;2022-09-29T02:06:56;4.05;;;1.70;;
72882;SDS011;61017;37.812;-122.286;2022-09-29T02:08:53;6.82;;;1.75;;
72882;SDS011;61017;37.812;-122.286;2022-09-29T02:12:43;8.05;;;2.00;;
72882;SDS011;61017;37.812;-122.286;2022-09-29T02:14:38;5.18;;;1.67;;
72882;SDS011;61017;37.812;-122.286;2022-09-29T02:16:37;4.53;;;1.83;;
72882;SDS011;61017;37.812;-122.286;2022-09-29T02:18:39;4.57;;;1.90;;
72882;SDS011;61017;37.812;-122.286;2022-09-29T02:20:41;5.60;;;1.65;;
72882;SDS011;61017;37.812;-122.286;2022-09-29T02:22:31;3.40;;;1.50;;
72882;SDS011;61017;37.812;-122.286;2022-09-29T02:24:24;5.38;;;1.90;;
72882;SDS011;61017;37.812;-122.286;2022-09-29T02:26:14;4.25;;;1.73;;
72882;SDS011;61017;37.812;-122.286;2022-09-29T02:28:05;8.15;;;1.70;;
72882;SDS011;61017;37.812;-122.286;2022-09-29T02:29:57;17.02;;;2.28;;
72882;SDS011;61017;37.812;-122.286;2022-09-29T02:31:47;24.67;;;2.38;;
72882;SDS011;61017;37.812;-122.286;2022-09-29T02:33:37;17.10;;;2.58;;
72882;SDS011;61017;37.812;-122.286;2022-09-29T02:35:28;10.90;;;2.25;;
72882;SDS011;61017;37.812;-122.286;2022-09-29T02:39:58;15.05;;;2.38;;
72882;SDS011;61017;37.812;-122.286;2022-09-29T02:44:43;9.55;;;2.05;;
72882;SDS011;61017;37.812;-122.286;2022-09-29T02:47:00;9.40;;;2.13;;
72882;SDS011;61017;37.812;-122.286;2022-09-29T02:49:02;8.85;;;2.08;;
72882;SDS011;61017;37.812;-122.286;2022-09-29T02:53:51;6.50;;;2.05;;
72882;SDS011;61017;37.812;-122.286;2022-09-29T02:57:48;6.20;;;2.10;;
72882;SDS011;61017;37.812;-122.286;2022-09-29T03:00:05;8.82;;;2.00;;
72882;SDS011;61017;37.812;-122.286;2022-09-29T03:01:58;6.32;;;2.17;;
72882;SDS011;61017;37.812;-122.286;2022-09-29T03:03:47;7.93;;;2.33;;
72882;SDS011;61017;37.812;-122.286;2022-09-29T03:05:37;6.88;;;2.08;;
72882;SDS011;61017;37.812;-122.286;2022-09-29T03:07:28;6.45;;;2.40;;
72882;SDS011;61017;37.812;-122.286;2022-09-29T03:09:18;4.30;;;1.80;;
72882;SDS011;61017;37.812;-122.286;2022-09-29T03:11:08;5.35;;;2.08;;
72882;SDS011;61017;37.812;-122.286;2022-09-29T03:12:59;5.20;;;2.08;;
72882;SDS011;61017;37.812;-122.286;2022-09-29T03:14:49;5.25;;;2.13;;
72882;SDS011;61017;37.812;-122.286;2022-09-29T03:16:39;7.78;;;1.98;;
72882;SDS011;61017;37.812;-122.286;2022-09-29T03:18:29;4.75;;;2.00;;
72882;SDS011;61017;37.812;-122.286;2022-09-29T03:20:19;5.35;;;1.88;;
72882;SDS011;61017;37.812;-122.286;2022-09-29T03:22:09;4.43;;;1.80;;
72882;SDS011;61017;37.812;-122.286;2022-09-29T03:23:59;4.95;;;1.85;;
72882;SDS011;61017;37.812;-122.286;2022-09-29T03:25:49;4.82;;;1.80;;
72882;SDS011;61017;37.812;-122.286;2022-09-29T03:27:40;3.22;;;1.80;;
72882;SDS011;61017;37.812;-122.286;2022-09-29T03:29:30;6.38;;;1.90;;
72882;SDS011;61017;37.812;-122.286;2022-09-29T03:31:20;6.97;;;1.80;;
72882;SDS011;61017;37.812;-122.286;2022-09-29T03:33:11;3.83;;;1.70;;
72882;SDS011;61017;37.812;-122.286;2022-09-29T03:35:00;4.82;;;1.95;;
72882;SDS011;61017;37.812;-122.286;2022-09-29T03:36:50;3.45;;;2.03;;
72882;SDS011;61017;37.812;-122.286;2022-09-29T03:38:40;3.97;;;1.80;;
72882;SDS011;61017;37.812;-122.286;2022-09-29T03:40:30;4.97;;;1.80;;
72882;SDS011;61017;37.812;-122.286;2022-09-29T03:42:20;2.30;;;1.58;;
72882;SDS011;61017;37.812;-122.286;2022-09-29T03:44:10;3.78;;;1.77;;
72882;SDS011;61017;37.812;-122.286;2022-09-29T03:46:00;3.47;;;1.90;;
72882;SDS011;61017;37.812;-122.286;2022-09-29T03:47:51;3.40;;;1.80;;
72882;SDS011;61017;37.812;-122.286;2022-09-29T03:49:41;5.85;;;2.17;;
72882;SDS011;61017;37.812;-122.286;2022-09-29T03:51:31;4.88;;;1.90;;
72882;SDS011;61017;37.812;-122.286;2022-09-29T03:53:21;2.97;;;1.60;;
72882;SDS011;61017;37.812;-122.286;2022-09-29T03:55:11;4.05;;;1.67;;
72882;SDS011;61017;37.812;-122.286;2022-09-29T03:57:01;3.15;;;1.65;;
72882;SDS011;61017;37.812;-122.286;2022-09-29T03:58:51;4.18;;;1.83;;
72882;SDS011;61017;37.812;-122.286;2022-09-29T04:00:41;4.03;;;1.70;;
72882;SDS011;61017;37.812;-122.286;2022-09-29T04:02:31;4.15;;;2.00;;
72882;SDS011;61017;37.812;-122.286;2022-09-29T04:04:21;3.72;;;1.63;;
72882;SDS011;61017;37.812;-122.286;2022-09-29T04:06:11;3.85;;;1.70;;
72882;SDS011;61017;37.812;-122.286;2022-09-29T04:08:01;3.55;;;1.63;;
72882;SDS011;61017;37.812;-122.286;2022-09-29T04:09:54;5.50;;;1.67;;
72882;SDS011;61017;37.812;-122.286;2022-09-29T04:11:44;3.13;;;1.70;;
72882;SDS011;61017;37.812;-122.286;2022-09-29T04:13:34;3.33;;;1.50;;
72882;SDS011;61017;37.812;-122.286;2022-09-29T04:15:24;3.22;;;1.67;;
72882;SDS011;61017;37.812;-122.286;2022-09-29T04:17:14;4.00;;;1.50;;
72882;SDS011;61017;37.812;-122.286;2022-09-29T04:19:04;2.80;;;1.48;;
72882;SDS011;61017;37.812;-122.286;2022-09-29T04:20:54;4.13;;;1.60;;
72882;SDS011;61017;37.812;-122.286;2022-09-29T04:22:44;3.45;;;1.50;;
72882;SDS011;61017;37.812;-122.286;2022-09-29T04:24:34;4.07;;;1.83;;
72882;SDS011;61017;37.812;-122.286;2022-09-29T04:26:24;4.53;;;1.77;;
72882;SDS011;61017;37.812;-122.286;2022-09-29T04:28:14;3.00;;;1.50;;
72882;SDS011;61017;37.812;-122.286;2022-09-29T04:30:04;3.20;;;1.70;;
72882;SDS011;61017;37.812;-122.286;2022-09-29T04:31:55;3.80;;;1.65;;
72882;SDS011;61017;37.812;-122.286;2022-09-29T04:33:45;4.15;;;1.67;;
72882;SDS011;61017;37.812;-122.286;2022-09-29T04:35:35;3.75;;;1.67;;
72882;SDS011;61017;37.812;-122.286;2022-09-29T04:37:25;3.95;;;1.70;;
72882;SDS011;61017;37.812;-122.286;2022-09-29T04:39:15;3.38;;;1.70;;
72882;SDS011;61017;37.812;-122.286;2022-09-29T04:41:10;3.47;;;1.65;;
72882;SDS011;61017;37.812;-122.286;2022-09-29T04:43:01;3.00;;;1.70;;
72882;SDS011;61017;37.812;-122.286;2022-09-29T04:44:51;2.63;;;1.60;;
72882;SDS011;61017;37.812;-122.286;2022-09-29T04:46:41;3.25;;;1.58;;
72882;SDS011;61017;37.812;-122.286;2022-09-29T04:48:31;3.83;;;1.75;;
72882;SDS011;61017;37.812;-122.286;2022-09-29T04:50:22;3.08;;;1.70;;
72882;SDS011;61017;37.812;-122.286;2022-09-29T04:52:13;2.25;;;1.40;;
72882;SDS011;61017;37.812;-122.286;2022-09-29T04:54:04;3.10;;;1.67;;
72882;SDS011;61017;37.812;-122.286;2022-09-29T04:55:54;4.32;;;1.75;;
72882;SDS011;61017;37.812;-122.286;2022-09-29T04:57:43;2.83;;;1.60;;
72882;SDS011;61017;37.812;-122.286;2022-09-29T04:59:33;2.95;;;1.40;;
72882;SDS011;61017;37.812;-122.286;2022-09-29T05:01:24;2.92;;;1.60;;
72882;SDS011;61017;37.812;-122.286;2022-09-29T05:03:14;3.58;;;1.45;;
72882;SDS011;61017;37.812;-122.286;2022-09-29T05:05:05;2.83;;;1.70;;
72882;SDS011;61017;37.812;-122.286;2022-09-29T05:06:55;2.40;;;1.45;;
72882;SDS011;61017;37.812;-122.286;2022-09-29T05:08:45;2.72;;;1.70;;
72882;SDS011;61017;37.812;-122.286;2022-09-29T05:10:35;3.35;;;1.48;;
72882;SDS011;61017;37.812;-122.286;2022-09-29T05:12:26;3.38;;;1.65;;
72882;SDS011;61017;37.812;-122.286;2022-09-29T05:14:16;2.58;;;1.58;;
72882;SDS011;61017;37.812;-122.286;2022-09-29T05:16:06;3.42;;;1.75;;
72882;SDS011;61017;37.812;-122.286;2022-09-29T05:17:59;2.80;;;1.55;;
72882;SDS011;61017;37.812;-122.286;2022-09-29T05:19:50;2.92;;;1.70;;
72882;SDS011;61017;37.812;-122.286;2022-09-29T05:21:40;3.30;;;1.60;;
72882;SDS011;61017;37.812;-122.286;2022-09-29T05:23:30;3.63;;;1.70;;
72882;SDS011;61017;37.812;-122.286;2022-09-29T05:25:20;2.50;;;1.50;;
72882;SDS011;61017;37.812;-122.286;2022-09-29T05:27:10;2.00;;;1.40;;
72882;SDS011;61017;37.812;-122.286;2022-09-29T05:29:00;2.65;;;1.50;;
72882;SDS011;61017;37.812;-122.286;2022-09-29T05:30:50;2.42;;;1.20;;
72882;SDS011;61017;37.812;-122.286;2022-09-29T05:32:41;2.65;;;1.50;;
72882;SDS011;61017;37.812;-122.286;2022-09-29T05:34:31;3.25;;;1.50;;
72882;SDS011;61017;37.812;-122.286;2022-09-29T05:36:21;2.70;;;1.40;;
72882;SDS011;61017;37.812;-122.286;2022-09-29T05:38:12;2.58;;;1.40;;
72882;SDS011;61017;37.812;-122.286;2022-09-29T05:40:01;1.90;;;1.40;;
72882;SDS011;61017;37.812;-122.286;2022-09-29T05:41:52;3.35;;;1.50;;
72882;SDS011;61017;37.812;-122.286;2022-09-29T05:43:42;2.40;;;1.20;;
72882;SDS011;61017;37.812;-122.286;2022-09-29T05:45:31;2.58;;;1.50;;
72882;SDS011;61017;37.812;-122.286;2022-09-29T05:47:21;3.42;;;1.40;;
72882;SDS011;61017;37.812;-122.286;2022-09-29T05:49:11;2.10;;;1.38;;
72882;SDS011;61017;37.812;-122.286;2022-09-29T05:51:35;2.45;;;1.30;;
72882;SDS011;61017;37.812;-122.286;2022-09-29T05:53:17;2.72;;;1.40;;
72882;SDS011;61017;37.812;-122.286;2022-09-29T05:55:07;1.92;;;1.20;;
72882;SDS011;61017;37.812;-122.286;2022-09-29T05:56:58;2.55;;;1.40;;
72882;SDS011;61017;37.812;-122.286;2022-09-29T05:58:48;2.20;;;1.15;;
72882;SDS011;61017;37.812;-122.286;2022-09-29T06:00:38;3.00;;;1.27;;
72882;SDS011;61017;37.812;-122.286;2022-09-29T06:02:29;1.88;;;1.20;;
72882;SDS011;61017;37.812;-122.286;2022-09-29T06:04:19;3.92;;;1.42;;
72882;SDS011;61017;37.812;-122.286;2022-09-29T06:06:20;1.95;;;1.20;;
72882;SDS011;61017;37.812;-122.286;2022-09-29T06:10:03;3.65;;;1.60;;
72882;SDS011;61017;37.812;-122.286;2022-09-29T06:11:53;2.88;;;1.38;;
72882;SDS011;61017;37.812;-122.286;2022-09-29T06:13:44;5.22;;;1.30;;
72882;SDS011;61017;37.812;-122.286;2022-09-29T06:15:36;2.65;;;1.30;;
72882;SDS011;61017;37.812;-122.286;2022-09-29T06:17:26;2.45;;;1.30;;
72882;SDS011;61017;37.812;-122.286;2022-09-29T06:19:16;3.13;;;1.30;;
72882;SDS011;61017;37.812;-122.286;2022-09-29T06:21:07;3.25;;;1.20;;
72882;SDS011;61017;37.812;-122.286;2022-09-29T06:22:59;2.35;;;1.40;;
72882;SDS011;61017;37.812;-122.286;2022-09-29T06:24:49;2.05;;;1.10;;
72882;SDS011;61017;37.812;-122.286;2022-09-29T06:26:38;2.90;;;1.20;;
72882;SDS011;61017;37.812;-122.286;2022-09-29T06:28:28;2.38;;;1.40;;
72882;SDS011;61017;37.812;-122.286;2022-09-29T06:30:20;2.38;;;1.33;;
72882;SDS011;61017;37.812;-122.286;2022-09-29T06:32:10;3.35;;;1.38;;
72882;SDS011;61017;37.812;-122.286;2022-09-29T06:34:01;2.75;;;1.45;;
72882;SDS011;61017;37.812;-122.286;2022-09-29T06:35:52;3.38;;;1.60;;
72882;SDS011;61017;37.812;-122.286;2022-09-29T06:37:42;3.38;;;1.58;;
72882;SDS011;61017;37.812;-122.286;2022-09-29T06:39:33;1.88;;;1.20;;
72882;SDS011;61017;37.812;-122.286;2022-09-29T06:41:23;2.95;;;1.50;;
72882;SDS011;61017;37.812;-122.286;2022-09-29T06:43:13;2.85;;;1.30;;
72882;SDS011;61017;37.812;-122.286;2022-09-29T06:45:03;2.22;;;1.30;;
72882;SDS011;61017;37.812;-122.286;2022-09-29T06:46:53;2.88;;;1.45;;
72882;SDS011;61017;37.812;-122.286;2022-09-29T06:48:45;2.60;;;1.20;;
72882;SDS011;61017;37.812;-122.286;2022-09-29T06:50:35;2.30;;;1.33;;
72882;SDS011;61017;37.812;-122.286;2022-09-29T06:52:25;2.47;;;1.40;;
72882;SDS011;61017;37.812;-122.286;2022-09-29T06:54:16;2.42;;;1.40;;
72882;SDS011;61017;37.812;-122.286;2022-09-29T06:56:08;2.10;;;1.35;;
72882;SDS011;61017;37.812;-122.286;2022-09-29T06:57:58;2.97;;;1.30;;
72882;SDS011;61017;37.812;-122.286;2022-09-29T06:59:48;4.05;;;1.33;;
72882;SDS011;61017;37.812;-122.286;2022-09-29T07:01:38;2.40;;;1.40;;
72882;SDS011;61017;37.812;-122.286;2022-09-29T07:03:28;3.58;;;1.60;;
72882;SDS011;61017;37.812;-122.286;2022-09-29T07:05:19;2.83;;;1.60;;
72882;SDS011;61017;37.812;-122.286;2022-09-29T07:07:09;3.30;;;2.00;;
72882;SDS011;61017;37.812;-122.286;2022-09-29T07:08:59;3.78;;;1.67;;
72882;SDS011;61017;37.812;-122.286;2022-09-29T07:10:49;4.10;;;1.77;;
72882;SDS011;61017;37.812;-122.286;2022-09-29T07:12:39;3.17;;;1.92;;
72882;SDS011;61017;37.812;-122.286;2022-09-29T07:14:29;3.22;;;2.00;;
72882;SDS011;61017;37.812;-122.286;2022-09-29T07:16:19;3.13;;;1.85;;
72882;SDS011;61017;37.812;-122.286;2022-09-29T07:18:09;3.78;;;2.03;;
72882;SDS011;61017;37.812;-122.286;2022-09-29T07:19:59;3.50;;;2.28;;
72882;SDS011;61017;37.812;-122.286;2022-09-29T07:21:49;3.15;;;2.00;;
72882;SDS011;61017;37.812;-122.286;2022-09-29T07:23:40;2.63;;;2.15;;
72882;SDS011;61017;37.812;-122.286;2022-09-29T07:25:30;4.57;;;2.50;;
72882;SDS011;61017;37.812;-122.286;2022-09-29T07:27:22;4.07;;;2.45;;
72882;SDS011;61017;37.812;-122.286;2022-09-29T07:29:12;3.47;;;2.40;;
72882;SDS011;61017;37.812;-122.286;2022-09-29T07:31:04;6.95;;;2.78;;
72882;SDS011;61017;37.812;-122.286;2022-09-29T07:32:59;4.35;;;2.65;;
72882;SDS011;61017;37.812;-122.286;2022-09-29T07:34:49;3.95;;;2.72;;
72882;SDS011;61017;37.812;-122.286;2022-09-29T07:36:39;3.75;;;2.67;;
72882;SDS011;61017;37.812;-122.286;2022-09-29T07:38:29;6.57;;;3.30;;
72882;SDS011;61017;37.812;-122.286;2022-09-29T07:40:20;6.05;;;3.20;;
72882;SDS011;61017;37.812;-122.286;2022-09-29T07:42:12;4.18;;;3.15;;
72882;SDS011;61017;37.812;-122.286;2022-09-29T07:44:02;5.15;;;3.53;;
72882;SDS011;61017;37.812;-122.286;2022-09-29T07:45:52;5.53;;;3.55;;
72882;SDS011;61017;37.812;-122.286;2022-09-29T07:47:43;6.65;;;3.53;;
72882;SDS011;61017;37.812;-122.286;2022-09-29T07:49:33;5.68;;;3.50;;
72882;SDS011;61017;37.812;-122.286;2022-09-29T07:51:24;9.15;;;4.05;;
72882;SDS011;61017;37.812;-122.286;2022-09-29T07:53:15;8.52;;;3.80;;
72882;SDS011;61017;37.812;-122.286;2022-09-29T07:55:05;7.18;;;4.05;;
72882;SDS011;61017;37.812;-122.286;2022-09-29T07:56:55;6.47;;;3.63;;
72882;SDS011;61017;37.812;-122.286;2022-09-29T07:58:45;6.20;;;4.10;;
72882;SDS011;61017;37.812;-122.286;2022-09-29T08:00:37;7.70;;;3.70;;
72882;SDS011;61017;37.812;-122.286;2022-09-29T08:02:27;7.55;;;4.15;;
72882;SDS011;61017;37.812;-122.286;2022-09-29T08:04:18;6.93;;;4.25;;
72882;SDS011;61017;37.812;-122.286;2022-09-29T08:06:09;6.82;;;3.80;;
72882;SDS011;61017;37.812;-122.286;2022-09-29T08:08:03;5.32;;;4.22;;
72882;SDS011;61017;37.812;-122.286;2022-09-29T08:11:44;5.57;;;4.40;;
72882;SDS011;61017;37.812;-122.286;2022-09-29T08:13:34;6.38;;;3.97;;
72882;SDS011;61017;37.812;-122.286;2022-09-29T08:15:26;8.85;;;4.10;;
72882;SDS011;61017;37.812;-122.286;2022-09-29T08:17:16;4.20;;;3.80;;
72882;SDS011;61017;37.812;-122.286;2022-09-29T08:19:06;5.05;;;3.90;;
72882;SDS011;61017;37.812;-122.286;2022-09-29T08:20:56;7.00;;;4.20;;
72882;SDS011;61017;37.812;-122.286;2022-09-29T08:22:47;4.57;;;3.95;;
72882;SDS011;61017;37.812;-122.286;2022-09-29T08:24:37;5.20;;;4.47;;
72882;SDS011;61017;37.812;-122.286;2022-09-29T08:26:27;5.88;;;4.13;;
72882;SDS011;61017;37.812;-122.286;2022-09-29T08:28:19;5.50;;;4.30;;
72882;SDS011;61017;37.812;-122.286;2022-09-29T08:30:11;6.82;;;4.05;;
72882;SDS011;61017;37.812;-122.286;2022-09-29T08:32:04;4.50;;;4.03;;
72882;SDS011;61017;37.812;-122.286;2022-09-29T08:33:55;6.10;;;4.65;;
72882;SDS011;61017;37.812;-122.286;2022-09-29T08:35:53;6.30;;;4.20;;
72882;SDS011;61017;37.812;-122.286;2022-09-29T08:37:44;5.32;;;4.40;;
72882;SDS011;61017;37.812;-122.286;2022-09-29T08:39:34;5.13;;;4.10;;
72882;SDS011;61017;37.812;-122.286;2022-09-29T08:43:36;5.65;;;4.13;;
72882;SDS011;61017;37.812;-122.286;2022-09-29T08:45:31;4.90;;;3.78;;
72882;SDS011;61017;37.812;-122.286;2022-09-29T08:47:36;5.05;;;4.25;;
72882;SDS011;61017;37.812;-122.286;2022-09-29T08:49:32;4.93;;;4.10;;
72882;SDS011;61017;37.812;-122.286;2022-09-29T08:51:35;5.32;;;3.95;;
72882;SDS011;61017;37.812;-122.286;2022-09-29T08:53:28;5.30;;;3.83;;
72882;SDS011;61017;37.812;-122.286;2022-09-29T08:57:56;4.40;;;4.00;;
72882;SDS011;61017;37.812;-122.286;2022-09-29T08:59:54;4.85;;;3.83;;
72882;SDS011;61017;37.812;-122.286;2022-09-29T09:06:16;4.18;;;3.60;;
72882;SDS011;61017;37.812;-122.286;2022-09-29T09:08:37;4.20;;;3.72;;
72882;SDS011;61017;37.812;-122.286;2022-09-29T09:10:50;4.40;;;3.65;;
72882;SDS011;61017;37.812;-122.286;2022-09-29T09:12:54;4.85;;;3.58;;
72882;SDS011;61017;37.812;-122.286;2022-09-29T09:21:51;5.18;;;3.70;;
72882;SDS011;61017;37.812;-122.286;2022-09-29T09:23:53;4.55;;;3.58;;
72882;SDS011;61017;37.812;-122.286;2022-09-29T09:25:53;4.43;;;3.42;;
72882;SDS011;61017;37.812;-122.286;2022-09-29T09:27:55;4.75;;;3.42;;
72882;SDS011;61017;37.812;-122.286;2022-09-29T09:30:01;4.97;;;3.30;;
72882;SDS011;61017;37.812;-122.286;2022-09-29T09:32:00;4.10;;;3.45;;
72882;SDS011;61017;37.812;-122.286;2022-09-29T09:36:05;3.63;;;3.22;;
72882;SDS011;61017;37.812;-122.286;2022-09-29T09:38:03;4.38;;;3.40;;
72882;SDS011;61017;37.812;-122.286;2022-09-29T09:41:54;5.20;;;3.42;;
72882;SDS011;61017;37.812;-122.286;2022-09-29T09:43:51;4.40;;;3.38;;
72882;SDS011;61017;37.812;-122.286;2022-09-29T09:48:12;4.35;;;3.28;;
72882;SDS011;61017;37.812;-122.286;2022-09-29T09:50:15;5.45;;;3.38;;
72882;SDS011;61017;37.812;-122.286;2022-09-29T09:52:16;3.72;;;3.00;;
72882;SDS011;61017;37.812;-122.286;2022-09-29T09:54:33;4.15;;;3.20;;
72882;SDS011;61017;37.812;-122.286;2022-09-29T09:58:51;3.95;;;3.00;;
72882;SDS011;61017;37.812;-122.286;2022-09-29T10:00:54;4.75;;;3.08;;
72882;SDS011;61017;37.812;-122.286;2022-09-29T10:02:49;6.18;;;3.22;;
72882;SDS011;61017;37.812;-122.286;2022-09-29T10:04:41;6.37;;;2.80;;
72882;SDS011;61017;37.812;-122.286;2022-09-29T10:06:31;5.85;;;3.10;;
72882;SDS011;61017;37.812;-122.286;2022-09-29T10:12:15;5.63;;;3.25;;
72882;SDS011;61017;37.812;-122.286;2022-09-29T10:14:11;6.50;;;3.47;;
72882;SDS011;61017;37.812;-122.286;2022-09-29T10:16:10;4.70;;;3.33;;
72882;SDS011;61017;37.812;-122.286;2022-09-29T10:18:16;6.45;;;3.30;;
72882;SDS011;61017;37.812;-122.286;2022-09-29T10:20:11;5.35;;;3.13;;
72882;SDS011;61017;37.812;-122.286;2022-09-29T10:22:11;5.25;;;3.28;;
72882;SDS011;61017;37.812;-122.286;2022-09-29T10:24:03;4.47;;;2.97;;
72882;SDS011;61017;37.812;-122.286;2022-09-29T10:25:56;5.97;;;3.08;;
72882;SDS011;61017;37.812;-122.286;2022-09-29T10:27:53;5.68;;;3.35;;
72882;SDS011;61017;37.812;-122.286;2022-09-29T10:29:44;4.60;;;2.95;;
72882;SDS011;61017;37.812;-122.286;2022-09-29T10:31:36;5.07;;;3.00;;
72882;SDS011;61017;37.812;-122.286;2022-09-29T10:33:27;7.22;;;3.00;;
72882;SDS011;61017;37.812;-122.286;2022-09-29T10:35:18;6.85;;;3.45;;
72882;SDS011;61017;37.812;-122.286;2022-09-29T10:37:22;7.25;;;3.50;;
72882;SDS011;61017;37.812;-122.286;2022-09-29T10:41:27;5.28;;;3.03;;
72882;SDS011;61017;37.812;-122.286;2022-09-29T10:43:24;7.10;;;3.40;;
72882;SDS011;61017;37.812;-122.286;2022-09-29T10:45:21;6.07;;;3.28;;
72882;SDS011;61017;37.812;-122.286;2022-09-29T10:47:14;6.50;;;3.22;;
72882;SDS011;61017;37.812;-122.286;2022-09-29T10:49:20;7.15;;;3.58;;
72882;SDS011;61017;37.812;-122.286;2022-09-29T10:51:12;7.15;;;3.60;;
72882;SDS011;61017;37.812;-122.286;2022-09-29T10:55:25;6.68;;;3.65;;
72882;SDS011;61017;37.812;-122.286;2022-09-29T10:57:19;5.97;;;3.40;;
72882;SDS011;61017;37.812;-122.286;2022-09-29T10:59:16;6.53;;;3.58;;
72882;SDS011;61017;37.812;-122.286;2022-09-29T11:01:07;6.97;;;3.50;;
72882;SDS011;61017;37.812;-122.286;2022-09-29T11:03:18;6.03;;;3.50;;
72882;SDS011;61017;37.812;-122.286;2022-09-29T11:05:18;8.63;;;3.50;;
72882;SDS011;61017;37.812;-122.286;2022-09-29T11:07:11;6.25;;;3.35;;
72882;SDS011;61017;37.812;-122.286;2022-09-29T11:09:03;5.38;;;3.42;;
72882;SDS011;61017;37.812;-122.286;2022-09-29T11:11:04;6.32;;;3.72;;
72882;SDS011;61017;37.812;-122.286;2022-09-29T11:12:56;7.33;;;3.30;;
72882;SDS011;61017;37.812;-122.286;2022-09-29T11:14:46;6.90;;;3.70;;
72882;SDS011;61017;37.812;-122.286;2022-09-29T11:16:36;6.55;;;3.63;;
72882;SDS011;61017;37.812;-122.286;2022-09-29T11:18:34;8.25;;;4.00;;
72882;SDS011;61017;37.812;-122.286;2022-09-29T11:20:27;6.40;;;3.75;;
72882;SDS011;61017;37.812;-122.286;2022-09-29T11:22:44;7.55;;;3.75;;
72882;SDS011;61017;37.812;-122.286;2022-09-29T11:29:03;6.75;;;4.13;;
72882;SDS011;61017;37.812;-122.286;2022-09-29T11:31:01;7.57;;;3.85;;
72882;SDS011;61017;37.812;-122.286;2022-09-29T11:37:18;7.70;;;4.05;;
72882;SDS011;61017;37.812;-122.286;2022-09-29T11:39:21;7.63;;;4.30;;
72882;SDS011;61017;37.812;-122.286;2022-09-29T11:43:05;8.77;;;4.00;;
72882;SDS011;61017;37.812;-122.286;2022-09-29T11:45:26;7.80;;;3.97;;
72882;SDS011;61017;37.812;-122.286;2022-09-29T11:49:54;8.02;;;4.00;;
72882;SDS011;61017;37.812;-122.286;2022-09-29T12:05:24;8.27;;;4.03;;
72882;SDS011;61017;37.812;-122.286;2022-09-29T12:11:37;7.10;;;4.20;;
72882;SDS011;61017;37.812;-122.286;2022-09-29T12:17:51;7.85;;;3.70;;
72882;SDS011;61017;37.812;-122.286;2022-09-29T12:19:46;7.15;;;3.70;;
72882;SDS011;61017;37.812;-122.286;2022-09-29T12:21:49;9.45;;;4.18;;
72882;SDS011;61017;37.812;-122.286;2022-09-29T12:23:42;8.57;;;3.90;;
72882;SDS011;61017;37.812;-122.286;2022-09-29T12:25:35;8.77;;;3.88;;
72882;SDS011;61017;37.812;-122.286;2022-09-29T12:27:34;8.73;;;4.15;;
72882;SDS011;61017;37.812;-122.286;2022-09-29T12:31:34;7.55;;;3.67;;
72882;SDS011;61017;37.812;-122.286;2022-09-29T12:37:38;8.25;;;4.15;;
72882;SDS011;61017;37.812;-122.286;2022-09-29T12:45:02;7.77;;;3.53;;